Time;durP1;ratioP1;P1;durP2;ratioP2;P2;SDS_P1;SDS_P2;PMS_P1;PMS_P2;Temp;Humidity;BMP_temperature;BMP_pressure;BME280_temperature;BME280_humidity;BME280_pressure;Samples;Min_cycle;Max_cycle;Signal;HPM_P1;HPM_P2
2021/07/18 00:05:40;;;;;;;6.22;2.50;;;17.90;99.90;;;;;;12507871;28;20041;-85
2021/07/18 00:11:43;;;;;;;7.25;3.15;;;17.80;99.90;;;;;;12515740;28;20400;-84
2021/07/18 00:17:45;;;;;;;6.53;3.25;;;18.00;99.90;;;;;;12515899;28;20049;-85
2021/07/18 00:23:47;;;;;;;8.70;3.55;;;17.90;99.90;;;;;;12518153;28;20091;-85
2021/07/18 00:29:48;;;;;;;11.95;3.55;;;18.00;99.90;;;;;;12516388;28;20049;-86
2021/07/18 00:35:51;;;;;;;6.57;3.65;;;18.00;99.90;;;;;;12519796;28;20041;-85
2021/07/18 00:41:52;;;;;;;7.80;3.80;;;17.90;99.90;;;;;;12526620;28;20041;-85
2021/07/18 00:47:54;;;;;;;8.05;3.67;;;17.90;99.90;;;;;;12515489;28;20045;-85
2021/07/18 00:53:58;;;;;;;8.65;3.63;;;18.00;99.90;;;;;;12528525;28;20102;-85
2021/07/18 01:00:05;;;;;;;6.13;3.20;;;17.90;99.90;;;;;;12520569;28;20049;-85
2021/07/18 01:06:07;;;;;;;8.68;3.42;;;18.00;99.90;;;;;;12541266;28;20049;-85
2021/07/18 01:12:09;;;;;;;6.97;3.55;;;18.00;99.90;;;;;;12519592;28;20048;-85
2021/07/18 01:18:12;;;;;;;8.57;3.70;;;18.00;99.90;;;;;;12522591;28;20053;-85
2021/07/18 01:24:17;;;;;;;7.57;3.72;;;18.00;99.90;;;;;;12522908;28;20037;-85
2021/07/18 01:30:19;;;;;;;8.15;3.70;;;18.00;99.90;;;;;;12540269;28;20056;-85
2021/07/18 01:36:21;;;;;;;9.20;4.07;;;17.90;99.90;;;;;;12519542;28;20778;-85
2021/07/18 01:42:24;;;;;;;10.57;4.40;;;17.90;99.90;;;;;;12513743;28;20160;-85
2021/07/18 01:48:25;;;;;;;8.10;4.25;;;17.80;99.90;;;;;;12522185;28;20134;-85
2021/07/18 01:54:27;;;;;;;9.43;3.97;;;17.90;99.90;;;;;;12519985;28;20083;-85
2021/07/18 02:00:29;;;;;;;8.70;3.85;;;17.80;99.90;;;;;;12524599;28;20063;-85
2021/07/18 02:06:32;;;;;;;7.60;3.63;;;17.70;99.90;;;;;;12521242;28;20053;-85
2021/07/18 02:12:35;;;;;;;9.50;3.80;;;17.70;99.90;;;;;;12526512;28;20041;-85
2021/07/18 02:18:36;;;;;;;9.75;3.53;;;17.70;99.90;;;;;;12524493;28;20049;-85
2021/07/18 02:24:38;;;;;;;9.43;4.70;;;17.60;99.90;;;;;;12526811;28;20045;-85
2021/07/18 02:30:40;;;;;;;10.55;4.07;;;17.40;99.90;;;;;;12523089;28;20431;-85
2021/07/18 02:36:42;;;;;;;9.13;5.15;;;17.40;99.90;;;;;;12522012;28;20053;-85
2021/07/18 02:42:44;;;;;;;10.23;5.90;;;17.20;99.90;;;;;;12520771;28;20044;-84
2021/07/18 02:48:46;;;;;;;10.88;5.82;;;17.00;99.90;;;;;;12547448;28;20048;-85
2021/07/18 02:54:50;;;;;;;9.65;6.28;;;17.10;99.90;;;;;;12549269;28;20135;-84
2021/07/18 03:00:52;;;;;;;;;;;17.00;99.90;;;;;;12516832;28;20124;-85
2021/07/18 03:06:54;;;;;;;10.95;6.15;;;16.90;99.90;;;;;;12519871;28;19925;-84
2021/07/18 03:12:56;;;;;;;11.13;6.22;;;16.80;99.90;;;;;;12518693;28;20055;-85
2021/07/18 03:18:57;;;;;;;13.65;5.78;;;16.90;99.90;;;;;;12517523;28;20053;-85
2021/07/18 03:25:01;;;;;;;12.73;6.22;;;16.90;99.90;;;;;;12516362;28;20120;-84
2021/07/18 03:31:02;;;;;;;9.67;6.07;;;16.90;99.90;;;;;;12517703;28;20052;-85
2021/07/18 03:37:04;;;;;;;15.40;5.88;;;16.90;99.90;;;;;;12518060;28;20053;-84
2021/07/18 03:43:06;;;;;;;8.98;5.75;;;16.80;99.90;;;;;;12515575;28;20893;-85
2021/07/18 03:49:08;;;;;;;11.68;5.53;;;16.90;99.90;;;;;;12515277;28;20098;-85
2021/07/18 03:55:11;;;;;;;11.43;5.38;;;16.90;99.90;;;;;;12513996;28;20087;-85
2021/07/18 04:01:13;;;;;;;12.20;6.13;;;16.90;99.90;;;;;;12508618;28;20090;-85
2021/07/18 04:07:15;;;;;;;12.50;6.50;;;16.90;99.90;;;;;;12516922;28;20762;-84
2021/07/18 04:13:17;;;;;;;14.15;6.35;;;16.70;99.90;;;;;;12514062;28;20566;-85
2021/07/18 04:19:19;;;;;;;12.75;6.68;;;16.70;99.90;;;;;;12519351;28;20562;-85
2021/07/18 04:25:21;;;;;;;14.73;7.63;;;16.60;99.90;;;;;;12513376;28;20052;-85
2021/07/18 04:31:23;;;;;;;13.45;6.18;;;16.50;99.90;;;;;;12515086;28;20054;-85
2021/07/18 04:37:24;;;;;;;11.90;6.55;;;16.70;99.90;;;;;;12513135;28;20056;-85
2021/07/18 04:43:26;;;;;;;10.15;6.38;;;16.80;99.90;;;;;;12529960;28;20045;-85
2021/07/18 04:49:28;;;;;;;14.68;6.85;;;17.00;99.90;;;;;;12509727;28;20057;-84
2021/07/18 04:55:30;;;;;;;11.68;7.00;;;17.00;99.90;;;;;;12512760;28;20079;-85
2021/07/18 05:01:31;;;;;;;13.55;7.10;;;17.00;99.90;;;;;;12516667;28;20102;-84
2021/07/18 05:07:43;;;;;;;14.23;7.07;;;17.10;99.90;;;;;;12515272;28;20060;-85
2021/07/18 05:13:45;;;;;;;15.10;7.28;;;17.00;99.90;;;;;;12517049;28;20049;-84
2021/07/18 05:19:47;;;;;;;11.02;6.82;;;16.80;99.90;;;;;;12509034;28;20064;-85
2021/07/18 05:25:49;;;;;;;11.23;6.72;;;17.00;99.90;;;;;;12527125;28;20053;-85
2021/07/18 05:31:51;;;;;;;12.52;7.35;;;17.10;99.90;;;;;;12524397;28;20049;-84
2021/07/18 05:37:53;;;;;;;9.30;6.60;;;17.30;99.90;;;;;;12527062;28;20464;-85
2021/07/18 05:43:55;;;;;;;15.35;6.80;;;17.20;99.90;;;;;;12524969;28;20338;-84
2021/07/18 05:49:57;;;;;;;12.40;6.20;;;17.40;99.90;;;;;;12518492;28;20335;-85
2021/07/18 05:55:59;;;;;;;9.32;5.07;;;17.40;99.90;;;;;;12515994;28;20064;-85
2021/07/18 06:02:01;;;;;;;17.70;5.35;;;17.70;99.90;;;;;;12523424;28;20735;-85
2021/07/18 06:08:04;;;;;;;8.25;4.63;;;17.70;99.90;;;;;;12519963;28;20295;-85
2021/07/18 06:14:06;;;;;;;11.10;5.03;;;17.60;99.90;;;;;;12520388;28;20133;-85
2021/07/18 06:20:09;;;;;;;10.95;4.82;;;17.60;99.90;;;;;;12519198;28;20049;-85
2021/07/18 06:26:11;;;;;;;10.45;3.88;;;17.80;99.90;;;;;;12523523;28;20101;-85
2021/07/18 06:32:13;;;;;;;9.57;4.78;;;18.00;99.90;;;;;;12517098;28;20202;-85
2021/07/18 06:38:15;;;;;;;11.45;4.88;;;18.10;99.90;;;;;;12525916;28;20068;-85
2021/07/18 06:44:16;;;;;;;9.27;4.72;;;18.20;99.90;;;;;;12519422;28;20371;-85
2021/07/18 06:50:20;;;;;;;11.98;4.10;;;18.20;99.90;;;;;;12518209;28;20098;-85
2021/07/18 06:56:22;;;;;;;8.07;4.32;;;18.30;99.90;;;;;;12564139;28;20094;-86
2021/07/18 07:02:23;;;;;;;8.85;3.17;;;18.30;99.90;;;;;;12516273;28;20093;-85
2021/07/18 07:08:25;;;;;;;9.70;3.10;;;18.50;99.90;;;;;;12514443;28;20389;-85
2021/07/18 07:14:27;;;;;;;5.03;1.92;;;18.60;99.90;;;;;;12516023;28;20102;-84
2021/07/18 07:20:29;;;;;;;5.80;2.60;;;18.70;99.90;;;;;;12510716;28;20049;-85
2021/07/18 07:26:31;;;;;;;7.03;2.60;;;18.70;99.90;;;;;;12517537;28;20439;-85
2021/07/18 07:32:34;;;;;;;7.35;2.80;;;18.80;99.90;;;;;;12514674;28;20489;-84
2021/07/18 07:38:36;;;;;;;5.70;2.80;;;18.90;99.90;;;;;;12515989;28;20064;-85
2021/07/18 07:44:38;;;;;;;6.28;2.75;;;19.00;99.90;;;;;;12514318;28;20046;-85
2021/07/18 07:50:40;;;;;;;6.65;3.20;;;18.90;99.90;;;;;;12517764;28;20040;-84
2021/07/18 07:56:42;;;;;;;7.18;3.00;;;19.00;99.90;;;;;;12514471;28;20087;-85
2021/07/18 08:02:47;;;;;;;7.00;3.15;;;19.00;99.90;;;;;;12516693;28;20061;-85
2021/07/18 08:08:49;;;;;;;4.95;2.63;;;19.10;99.90;;;;;;12517525;28;20053;-85
2021/07/18 08:14:51;;;;;;;7.10;2.67;;;19.30;99.90;;;;;;12520629;28;20124;-85
2021/07/18 08:20:52;;;;;;;4.38;2.40;;;19.40;99.90;;;;;;12514186;28;20048;-85
2021/07/18 08:26:54;;;;;;;5.93;3.05;;;19.50;99.90;;;;;;12516374;28;20057;-86
2021/07/18 08:32:56;;;;;;;4.45;2.30;;;19.70;99.90;;;;;;12518635;28;20120;-86
2021/07/18 08:38:58;;;;;;;6.57;2.10;;;19.80;99.90;;;;;;12517814;28;20175;-86
2021/07/18 08:45:01;;;;;;;5.15;2.22;;;19.80;99.90;;;;;;12507565;28;20041;-85
2021/07/18 08:51:03;;;;;;;4.90;2.10;;;20.00;99.90;;;;;;12518849;28;20381;-85
2021/07/18 08:57:05;;;;;;;4.88;2.35;;;20.10;99.90;;;;;;12521594;28;20368;-86
2021/07/18 09:03:07;;;;;;;7.28;1.90;;;20.20;99.90;;;;;;12545433;28;20144;-86
2021/07/18 09:09:13;;;;;;;5.10;2.05;;;20.40;99.90;;;;;;12526270;28;20546;-85
2021/07/18 09:15:15;;;;;;;4.95;1.70;;;20.60;99.90;;;;;;12520673;28;20520;-85
2021/07/18 09:21:17;;;;;;;7.05;2.40;;;20.60;99.90;;;;;;12510681;28;21012;-85
2021/07/18 09:27:22;;;;;;;3.17;1.77;;;20.90;99.90;;;;;;12515052;28;20052;-85
2021/07/18 09:33:28;;;;;;;5.43;1.88;;;21.00;99.90;;;;;;12521301;28;20574;-86
2021/07/18 09:39:30;;;;;;;4.28;1.60;;;21.30;99.90;;;;;;12514362;28;20057;-86
2021/07/18 09:45:38;;;;;;;6.30;1.85;;;21.60;99.90;;;;;;12518885;28;20045;-85
2021/07/18 09:51:40;;;;;;;7.63;1.80;;;21.80;99.90;;;;;;12515477;28;20044;-85
2021/07/18 09:57:42;;;;;;;3.08;1.88;;;21.80;99.90;;;;;;12510631;28;20711;-85
2021/07/18 10:03:48;;;;;;;3.65;1.83;;;22.00;99.90;;;;;;12527964;28;20048;-86
2021/07/18 10:09:51;;;;;;;5.80;1.75;;;22.20;99.90;;;;;;12522421;28;20098;-86
2021/07/18 10:15:57;;;;;;;6.65;2.17;;;22.60;99.90;;;;;;12521286;28;20383;-86
2021/07/18 10:22:01;;;;;;;6.30;1.70;;;22.60;99.90;;;;;;12528161;28;20041;-87
2021/07/18 10:28:04;;;;;;;3.35;1.70;;;22.90;99.90;;;;;;12519871;28;20061;-86
2021/07/18 10:34:08;;;;;;;4.28;1.75;;;23.30;99.90;;;;;;12561622;28;20049;-87
2021/07/18 10:40:25;;;;;;;2.95;1.50;;;23.40;99.90;;;;;;12508134;28;21220;-86
2021/07/18 10:46:41;;;;;;;3.53;1.67;;;23.30;99.90;;;;;;12517803;28;20105;-86
2021/07/18 10:52:43;;;;;;;5.00;1.95;;;23.60;99.90;;;;;;12523285;28;20145;-86
2021/07/18 10:58:47;;;;;;;2.58;1.50;;;23.90;99.90;;;;;;12522699;28;20593;-87
2021/07/18 11:04:51;;;;;;;5.63;1.90;;;24.00;99.90;;;;;;12519848;28;20102;-85
2021/07/18 11:10:55;;;;;;;6.70;1.73;;;24.30;99.90;;;;;;12522401;28;20396;-87
2021/07/18 11:16:58;;;;;;;5.93;2.08;;;24.50;99.90;;;;;;12519835;28;20099;-88
2021/07/18 11:23:03;;;;;;;4.40;1.70;;;24.40;99.90;;;;;;12523493;28;20048;-87
2021/07/18 11:29:05;;;;;;;3.88;2.08;;;24.60;99.90;;;;;;12535891;28;20529;-86
2021/07/18 11:35:17;;;;;;;3.17;1.60;;;24.90;99.90;;;;;;12518204;28;20477;-86
2021/07/18 11:41:21;;;;;;;6.77;1.60;;;25.30;99.90;;;;;;12517437;28;20048;-87
2021/07/18 11:47:27;;;;;;;3.92;1.70;;;25.50;99.90;;;;;;12533351;28;20045;-86
2021/07/18 11:53:29;;;;;;;2.75;1.38;;;25.50;99.90;;;;;;12520427;28;20163;-87
2021/07/18 11:59:31;;;;;;;3.30;1.70;;;25.30;99.90;;;;;;12517384;28;20493;-86
2021/07/18 12:05:33;;;;;;;3.30;1.52;;;25.40;99.90;;;;;;12517479;28;20538;-86
2021/07/18 12:11:36;;;;;;;3.17;1.57;;;25.70;99.90;;;;;;12516848;28;20073;-86
2021/07/18 12:17:38;;;;;;;5.15;1.67;;;25.70;99.90;;;;;;12511077;28;20164;-87
2021/07/18 12:23:40;;;;;;;2.58;1.33;;;26.10;99.90;;;;;;12515085;28;20506;-87
2021/07/18 12:29:53;;;;;;;4.03;1.70;;;26.40;99.90;;;;;;12528249;28;20109;-86
2021/07/18 12:36:03;;;;;;;4.28;1.55;;;26.50;99.90;;;;;;12521257;28;21723;-87
2021/07/18 12:42:27;;;;;;;2.35;1.45;;;26.50;99.90;;;;;;12520819;28;20181;-86
2021/07/18 12:48:29;;;;;;;4.25;1.67;;;26.20;99.90;;;;;;12535180;28;20052;-87
2021/07/18 12:54:31;;;;;;;3.58;1.85;;;26.20;99.90;;;;;;12526545;28;20066;-87
2021/07/18 13:00:33;;;;;;;4.13;1.90;;;26.80;99.90;;;;;;12532032;28;20052;-87
2021/07/18 13:06:44;;;;;;;3.27;1.40;;;26.90;99.90;;;;;;12533653;28;20386;-88
2021/07/18 13:13:00;;;;;;;5.10;1.73;;;26.90;99.90;;;;;;12531237;28;20123;-86
2021/07/18 13:19:13;;;;;;;2.80;1.50;;;26.70;99.90;;;;;;12530482;28;20056;-87
2021/07/18 13:25:35;;;;;;;5.47;1.83;;;26.80;99.90;;;;;;12532617;28;20037;-86
2021/07/18 13:31:37;;;;;;;4.32;1.65;;;27.10;99.90;;;;;;12526997;28;20420;-86
2021/07/18 13:37:58;;;;;;;4.23;1.60;;;26.90;99.90;;;;;;12535668;28;20631;-88
2021/07/18 13:43:59;;;;;;;3.15;1.58;;;27.30;99.90;;;;;;12576573;28;20044;-87
2021/07/18 13:50:02;;;;;;;4.57;1.73;;;27.20;99.90;;;;;;12548144;28;20059;-88
2021/07/18 13:56:04;;;;;;;4.75;1.70;;;27.10;99.90;;;;;;12528769;28;20049;-86
2021/07/18 14:02:06;;;;;;;3.83;1.83;;;27.30;99.90;;;;;;12526337;28;20445;-85
2021/07/18 14:08:09;;;;;;;6.07;1.77;;;27.30;99.90;;;;;;12524237;28;20053;-87
2021/07/18 14:14:11;;;;;;;4.72;1.65;;;27.10;99.90;;;;;;12520218;28;20049;-86
2021/07/18 14:20:25;;;;;;;6.00;1.75;;;26.80;99.90;;;;;;12520930;28;20049;-86
2021/07/18 14:26:27;;;;;;;3.30;1.60;;;26.60;99.90;;;;;;12519601;28;20125;-86
2021/07/18 14:32:29;;;;;;;4.18;1.67;;;26.60;99.90;;;;;;12508939;28;20166;-86
2021/07/18 14:38:31;;;;;;;3.95;1.75;;;26.80;99.90;;;;;;12522364;28;20057;-86
2021/07/18 14:44:32;;;;;;;3.35;1.50;;;26.80;99.90;;;;;;12523422;28;20045;-87
2021/07/18 14:50:35;;;;;;;4.05;1.63;;;26.90;99.90;;;;;;12521161;28;20102;-87
2021/07/18 14:56:37;;;;;;;6.53;1.80;;;26.80;99.90;;;;;;12516936;28;20037;-87
2021/07/18 15:02:40;;;;;;;3.97;1.55;;;26.90;99.90;;;;;;12518301;28;20126;-86
2021/07/18 15:08:42;;;;;;;4.15;1.88;;;26.40;99.90;;;;;;12519124;28;20072;-86
2021/07/18 15:14:44;;;;;;;4.72;1.90;;;26.60;99.90;;;;;;12516370;28;20052;-86
2021/07/18 15:20:46;;;;;;;6.22;1.70;;;26.60;99.90;;;;;;12511911;28;20116;-86
2021/07/18 15:26:48;;;;;;;4.20;1.65;;;26.60;99.90;;;;;;12513055;28;20044;-87
2021/07/18 15:32:49;;;;;;;4.50;1.67;;;26.30;99.90;;;;;;12512095;28;20489;-86
2021/07/18 15:38:51;;;;;;;6.78;1.73;;;26.50;99.90;;;;;;12512121;28;20057;-86
2021/07/18 15:44:53;;;;;;;6.28;1.60;;;26.80;99.90;;;;;;12511277;28;20037;-87
2021/07/18 15:50:55;;;;;;;4.43;1.42;;;26.80;99.90;;;;;;12511559;28;20712;-87
2021/07/18 15:56:57;;;;;;;6.43;1.50;;;26.60;99.90;;;;;;12518310;28;20087;-86
2021/07/18 16:03:02;;;;;;;6.65;1.75;;;26.80;99.90;;;;;;12506791;28;20052;-86
2021/07/18 16:09:05;;;;;;;4.55;1.35;;;27.10;99.90;;;;;;12516826;28;20106;-85
2021/07/18 16:15:09;;;;;;;5.53;1.60;;;27.00;99.90;;;;;;12507861;28;20045;-86
2021/07/18 16:21:11;;;;;;;4.70;1.48;;;26.40;99.90;;;;;;12516198;28;20132;-86
2021/07/18 16:27:13;;;;;;;4.95;1.27;;;25.90;99.90;;;;;;12512398;28;20103;-86
2021/07/18 16:33:15;;;;;;;2.95;1.10;;;25.60;99.90;;;;;;12512671;28;20041;-87
2021/07/18 16:39:17;;;;;;;2.85;1.20;;;25.40;99.90;;;;;;12515043;28;20049;-85
2021/07/18 16:45:20;;;;;;;5.28;1.10;;;25.80;99.90;;;;;;12512582;28;20047;-86
2021/07/18 16:51:22;;;;;;;6.82;1.50;;;25.70;99.90;;;;;;12508190;28;20072;-87
2021/07/18 16:57:24;;;;;;;4.18;1.30;;;25.80;99.90;;;;;;12536331;28;20117;-87
2021/07/18 17:03:25;;;;;;;4.97;1.30;;;26.20;99.90;;;;;;12536022;28;20140;-86
2021/07/18 17:09:29;;;;;;;3.95;1.40;;;26.40;99.90;;;;;;12513126;28;20053;-86
2021/07/18 17:15:31;;;;;;;3.47;1.17;;;26.50;99.90;;;;;;12508082;28;20071;-87
2021/07/18 17:21:32;;;;;;;6.43;1.25;;;26.60;99.90;;;;;;12519967;28;20041;-86
2021/07/18 17:27:35;;;;;;;3.90;1.30;;;26.70;99.90;;;;;;12522386;28;20110;-86
2021/07/18 17:33:37;;;;;;;;;;;26.90;99.90;;;;;;12521445;28;20045;-86
2021/07/18 17:39:39;;;;;;;5.10;1.35;;;26.80;99.90;;;;;;12522205;28;19924;-85
2021/07/18 17:45:42;;;;;;;5.75;1.17;;;26.60;99.90;;;;;;12519812;28;20091;-87
2021/07/18 17:51:45;;;;;;;2.17;1.33;;;26.20;99.90;;;;;;12518278;28;20049;-85
2021/07/18 17:57:47;;;;;;;2.97;1.50;;;26.00;99.90;;;;;;12519134;28;20545;-86
2021/07/18 18:03:49;;;;;;;2.90;1.35;;;26.10;99.90;;;;;;12515594;28;20459;-87
2021/07/18 18:09:52;;;;;;;;;;;26.00;99.90;;;;;;12520155;28;20144;-86
2021/07/18 18:15:54;;;;;;;7.63;1.70;;;25.70;99.90;;;;;;12519881;28;19924;-86
2021/07/18 18:22:00;;;;;;;4.65;2.05;;;25.10;99.90;;;;;;12521032;28;20044;-85
2021/07/18 18:28:02;;;;;;;4.13;1.55;;;24.60;99.90;;;;;;12521653;28;20518;-86
2021/07/18 18:34:08;;;;;;;4.25;1.73;;;24.10;99.90;;;;;;12517296;28;20090;-85
2021/07/18 18:40:13;;;;;;;4.93;2.03;;;23.90;99.90;;;;;;12529924;28;21132;-87
2021/07/18 18:46:15;;;;;;;6.93;2.08;;;23.50;99.90;;;;;;12522859;28;20120;-86
2021/07/18 18:52:17;;;;;;;7.03;2.15;;;23.20;99.90;;;;;;12515366;28;20048;-85
2021/07/18 18:58:19;;;;;;;6.45;2.72;;;23.00;99.90;;;;;;12514400;28;20095;-85
2021/07/18 19:04:21;;;;;;;4.22;2.15;;;22.90;99.90;;;;;;12513386;28;20616;-84
2021/07/18 19:10:22;;;;;;;5.68;2.10;;;22.50;99.90;;;;;;12522013;28;20044;-84
2021/07/18 19:16:24;;;;;;;4.45;1.88;;;22.50;99.90;;;;;;12515132;28;20056;-85
2021/07/18 19:22:26;;;;;;;5.15;2.33;;;22.20;99.90;;;;;;12519601;28;20060;-85
2021/07/18 19:28:29;;;;;;;6.55;2.42;;;22.00;99.90;;;;;;12522019;28;20049;-84
2021/07/18 19:34:32;;;;;;;7.37;2.83;;;21.60;99.90;;;;;;12520311;28;20113;-85
2021/07/18 19:40:34;;;;;;;5.95;2.38;;;21.40;99.90;;;;;;12523963;28;20068;-83
2021/07/18 19:46:36;;;;;;;12.15;3.20;;;21.10;99.90;;;;;;12521322;28;20052;-85
2021/07/18 19:52:40;;;;;;;11.32;3.20;;;21.00;99.90;;;;;;12522579;28;20041;-85
2021/07/18 19:58:42;;;;;;;10.52;2.92;;;20.90;99.90;;;;;;12520336;28;20052;-84
2021/07/18 20:04:44;;;;;;;9.77;3.20;;;20.70;99.90;;;;;;12520176;28;20094;-85
2021/07/18 20:10:46;;;;;;;8.20;3.42;;;20.60;99.90;;;;;;12522982;28;20076;-85
2021/07/18 20:16:48;;;;;;;7.95;3.30;;;20.40;99.90;;;;;;12522615;28;20048;-85
2021/07/18 20:22:50;;;;;;;7.90;3.70;;;20.30;99.90;;;;;;12519567;28;20075;-84
2021/07/18 20:28:52;;;;;;;12.88;3.78;;;20.10;99.90;;;;;;12518717;28;20116;-84
2021/07/18 20:34:54;;;;;;;11.57;3.83;;;19.80;99.90;;;;;;12562031;28;20033;-84
2021/07/18 20:40:56;;;;;;;9.57;3.70;;;19.80;99.90;;;;;;12518884;28;20134;-83
2021/07/18 20:46:58;;;;;;;12.00;4.00;;;19.70;99.90;;;;;;12513222;28;20130;-83
2021/07/18 20:53:01;;;;;;;12.88;3.90;;;19.40;99.90;;;;;;12518283;28;20796;-84
2021/07/18 20:59:03;;;;;;;11.05;3.83;;;19.30;99.90;;;;;;12541102;28;20053;-84
2021/07/18 21:05:07;;;;;;;7.97;3.75;;;19.20;99.90;;;;;;12520824;28;20102;-84
2021/07/18 21:11:09;;;;;;;7.93;4.05;;;19.40;99.90;;;;;;12523255;28;20048;-84
2021/07/18 21:17:11;;;;;;;8.65;3.92;;;19.50;99.90;;;;;;12521047;28;20045;-84
2021/07/18 21:23:12;;;;;;;8.70;3.80;;;19.50;99.90;;;;;;12524427;28;20694;-83
2021/07/18 21:29:14;;;;;;;11.38;4.22;;;19.30;99.90;;;;;;12527260;28;20565;-84
2021/07/18 21:35:16;;;;;;;10.15;4.88;;;19.10;99.90;;;;;;12526516;28;20151;-84
2021/07/18 21:41:18;;;;;;;9.77;4.57;;;19.00;99.90;;;;;;12527317;28;20112;-84
2021/07/18 21:47:20;;;;;;;9.50;4.60;;;18.80;99.90;;;;;;12527980;28;20574;-84
2021/07/18 21:53:22;;;;;;;10.02;4.40;;;18.80;99.90;;;;;;12528573;28;20118;-84
2021/07/18 21:59:24;;;;;;;12.55;5.00;;;18.80;99.90;;;;;;12527331;28;20071;-83
2021/07/18 22:05:26;;;;;;;9.63;4.90;;;18.60;99.90;;;;;;12521849;28;20489;-84
2021/07/18 22:11:27;;;;;;;11.38;4.95;;;18.70;99.90;;;;;;12525135;28;20041;-84
2021/07/18 22:17:29;;;;;;;12.18;5.80;;;18.70;99.90;;;;;;12513452;28;20045;-83
2021/07/18 22:23:31;;;;;;;11.32;6.10;;;18.30;99.90;;;;;;12521035;28;20989;-83
2021/07/18 22:29:33;;;;;;;10.00;5.88;;;18.20;99.90;;;;;;12528104;28;20547;-83
2021/07/18 22:35:34;;;;;;;11.43;6.00;;;18.10;99.90;;;;;;12527295;28;20129;-84
2021/07/18 22:41:37;;;;;;;10.98;6.15;;;18.00;99.90;;;;;;12520344;28;20132;-84
2021/07/18 22:47:39;;;;;;;10.98;5.85;;;17.90;99.90;;;;;;12523164;28;20132;-84
2021/07/18 22:53:41;;;;;;;9.98;6.07;;;17.90;99.90;;;;;;12527144;28;20156;-83
2021/07/18 22:59:42;;;;;;;12.18;6.25;;;18.00;99.90;;;;;;12522781;28;20552;-84
2021/07/18 23:05:45;;;;;;;11.48;6.90;;;17.90;99.90;;;;;;12525785;28;20549;-84
2021/07/18 23:11:47;;;;;;;9.82;5.55;;;17.80;99.90;;;;;;12525308;28;20052;-84
2021/07/18 23:17:49;;;;;;;10.65;6.32;;;17.80;99.90;;;;;;12535529;28;20124;-83
2021/07/18 23:23:52;;;;;;;10.80;6.47;;;17.80;99.90;;;;;;12521691;28;20037;-83
2021/07/18 23:29:54;;;;;;;10.30;6.30;;;17.70;99.90;;;;;;12518432;28;20074;-83
2021/07/18 23:35:56;;;;;;;9.00;5.85;;;17.60;99.90;;;;;;12518565;28;20787;-84
2021/07/18 23:41:57;;;;;;;12.00;6.38;;;17.60;99.90;;;;;;12520295;28;20895;-83
2021/07/18 23:47:59;;;;;;;9.52;6.45;;;17.50;99.90;;;;;;12516619;28;20105;-83
2021/07/18 23:54:01;;;;;;;7.22;5.32;;;17.60;99.90;;;;;;12521614;28;20155;-84
